createdAt,value
2018-09-01T00:00:32.604Z,17.91
2018-09-01T00:03:03.071Z,17.80
2018-09-01T00:05:32.444Z,17.78
2018-09-01T00:08:02.032Z,17.73
2018-09-01T00:10:32.112Z,17.74
2018-09-01T00:13:04.608Z,17.71
2018-09-01T00:15:34.235Z,17.60
2018-09-01T00:18:04.092Z,17.57
2018-09-01T00:20:34.027Z,17.61
2018-09-01T00:23:06.225Z,17.66
2018-09-01T00:25:37.396Z,17.68
2018-09-01T00:28:10.053Z,17.63
2018-09-01T00:30:40.429Z,17.47
2018-09-01T00:36:09.826Z,17.33
2018-09-01T00:38:44.341Z,17.27
2018-09-01T00:41:20.475Z,17.32
2018-09-01T00:43:52.505Z,17.19
2018-09-01T00:46:23.293Z,17.24
2018-09-01T00:48:54.724Z,17.19
2018-09-01T00:51:25.825Z,17.07
2018-09-01T00:53:56.754Z,17.02
2018-09-01T00:56:27.441Z,17.03
2018-09-01T00:58:58.313Z,17.07
2018-09-01T01:01:28.965Z,17.07
2018-09-01T01:03:58.661Z,17.02
2018-09-01T01:06:29.140Z,17.01
2018-09-01T01:09:01.179Z,17.03
2018-09-01T01:11:38.309Z,16.98
2018-09-01T01:14:14.001Z,16.92
2018-09-01T01:16:48.152Z,16.94
2018-09-01T01:19:18.358Z,16.97
2018-09-01T01:21:49.138Z,16.97
2018-09-01T01:24:19.063Z,17.02
2018-09-01T01:27:00.604Z,16.99
2018-09-01T01:29:30.336Z,17.01
2018-09-01T01:31:59.904Z,16.91
2018-09-01T01:34:29.619Z,16.80
2018-09-01T01:36:59.425Z,16.75
2018-09-01T01:39:29.384Z,16.75
2018-09-01T01:42:05.090Z,16.73
2018-09-01T01:44:34.515Z,16.57
2018-09-01T01:47:04.689Z,16.53
2018-09-01T01:49:34.165Z,16.56
2018-09-01T01:52:03.486Z,16.62
2018-09-01T01:54:33.219Z,16.60
2018-09-01T01:57:03.040Z,16.52
2018-09-01T01:59:32.165Z,16.50
2018-09-01T02:02:03.254Z,16.11
2018-09-01T02:04:32.912Z,16.48
2018-09-01T02:07:02.446Z,16.42
2018-09-01T02:09:34.003Z,16.37
2018-09-01T02:12:03.544Z,16.36
2018-09-01T02:14:32.998Z,16.39
2018-09-01T02:17:04.417Z,16.44
2018-09-01T02:19:37.076Z,16.58
2018-09-01T02:22:07.064Z,16.66
2018-09-01T02:24:37.195Z,16.72
2018-09-01T02:27:07.004Z,16.73
2018-09-01T02:29:37.175Z,16.69
2018-09-01T02:32:07.284Z,16.73
2018-09-01T02:34:37.084Z,16.76
2018-09-01T02:37:06.359Z,16.69
2018-09-01T02:39:35.827Z,16.60
2018-09-01T02:42:06.107Z,16.51
2018-09-01T02:44:36.490Z,16.48
2018-09-01T02:47:06.515Z,16.45
2018-09-01T02:49:35.791Z,16.46
2018-09-01T02:52:05.494Z,16.48
2018-09-01T02:54:35.226Z,16.49
2018-09-01T02:57:05.102Z,16.49
2018-09-01T02:59:34.407Z,16.49
2018-09-01T03:02:03.941Z,16.46
2018-09-01T03:04:33.242Z,16.45
2018-09-01T03:07:04.118Z,16.37
2018-09-01T03:09:33.519Z,16.35
2018-09-01T03:12:04.000Z,16.33
2018-09-01T03:14:35.065Z,16.26
2018-09-01T03:17:04.873Z,16.30
2018-09-01T03:19:36.783Z,16.32
2018-09-01T03:22:06.175Z,15.75
2018-09-01T03:24:35.927Z,16.19
2018-09-01T03:27:08.381Z,16.22
2018-09-01T03:29:37.954Z,16.22
2018-09-01T03:32:09.201Z,16.27
2018-09-01T03:34:38.701Z,16.31
2018-09-01T03:37:08.115Z,16.24
2018-09-01T03:39:37.451Z,16.23
2018-09-01T03:42:07.215Z,16.23
2018-09-01T03:44:36.256Z,16.19
2018-09-01T03:47:06.497Z,16.21
2018-09-01T03:49:35.987Z,16.18
2018-09-01T03:52:05.770Z,16.18
2018-09-01T03:54:35.126Z,16.16
2018-09-01T03:57:04.666Z,16.18
2018-09-01T03:59:34.066Z,16.19
2018-09-01T04:02:03.922Z,16.21
2018-09-01T04:04:33.206Z,16.27
2018-09-01T04:07:04.255Z,16.23
2018-09-01T04:09:33.759Z,16.19
2018-09-01T04:12:03.513Z,16.15
2018-09-01T04:14:33.103Z,16.09
2018-09-01T04:17:03.709Z,16.07
2018-09-01T04:19:33.034Z,16.06
2018-09-01T04:22:03.423Z,16.08
2018-09-01T04:24:32.982Z,16.06
2018-09-01T04:27:02.590Z,15.97
2018-09-01T04:29:33.345Z,15.61
2018-09-01T04:32:04.599Z,15.80
2018-09-01T04:34:35.152Z,15.78
2018-09-01T04:37:04.906Z,15.77
2018-09-01T04:39:34.333Z,15.74
2018-09-01T04:42:03.740Z,15.65
2018-09-01T04:44:33.457Z,15.64
2018-09-01T04:47:03.507Z,15.60
2018-09-01T04:49:37.603Z,15.59
2018-09-01T04:52:07.420Z,15.58
2018-09-01T04:54:36.825Z,15.62
2018-09-01T04:57:06.232Z,15.58
2018-09-01T04:59:36.505Z,15.64
2018-09-01T05:02:06.887Z,15.74
2018-09-01T05:07:05.303Z,15.81
2018-09-01T05:09:34.632Z,15.80
2018-09-01T05:12:04.515Z,15.79
2018-09-01T05:14:33.894Z,15.85
2018-09-01T05:17:03.603Z,15.79
2018-09-01T05:19:33.669Z,15.85
2018-09-01T05:22:02.981Z,15.93
2018-09-01T05:24:32.433Z,15.98
2018-09-01T05:27:02.929Z,16.06
2018-09-01T05:29:32.285Z,16.14
2018-09-01T05:32:02.355Z,16.23
2018-09-01T05:34:32.082Z,16.31
2018-09-01T05:37:01.796Z,16.51
2018-09-01T05:39:32.303Z,16.69
2018-09-01T05:42:02.858Z,16.83
2018-09-01T05:44:37.461Z,17.02
2018-09-01T05:47:07.269Z,17.15
2018-09-01T05:49:36.634Z,17.20
2018-09-01T05:52:09.782Z,17.26
2018-09-01T05:54:39.501Z,17.47
2018-09-01T05:57:11.428Z,17.70
2018-09-01T05:59:40.776Z,17.83
2018-09-01T06:02:10.709Z,18.07
2018-09-01T06:04:40.026Z,18.00
2018-09-01T06:07:09.868Z,18.55
2018-09-01T06:09:40.468Z,18.69
2018-09-01T06:12:09.939Z,18.93
2018-09-01T06:14:39.373Z,19.23
2018-09-01T06:17:09.302Z,19.50
2018-09-01T06:19:39.699Z,19.77
2018-09-01T06:22:09.097Z,19.93
2018-09-01T06:24:40.541Z,20.13
2018-09-01T06:27:15.832Z,20.29
2018-09-01T06:29:45.617Z,20.54
2018-09-01T06:32:15.784Z,20.79
2018-09-01T06:34:45.421Z,20.80
2018-09-01T06:37:16.454Z,20.82
2018-09-01T06:39:46.530Z,20.88
2018-09-01T06:42:17.132Z,21.11
2018-09-01T06:44:46.862Z,21.06
2018-09-01T06:47:16.709Z,21.29
2018-09-01T06:49:47.032Z,21.55
2018-09-01T06:52:16.737Z,21.80
2018-09-01T06:54:49.739Z,22.24
2018-09-01T06:57:19.981Z,22.58
2018-09-01T06:59:50.521Z,22.71
2018-09-01T07:02:22.059Z,22.65
2018-09-01T07:04:55.421Z,22.65
2018-09-01T07:07:27.036Z,22.76
2018-09-01T07:10:01.859Z,22.86
2018-09-01T07:12:32.574Z,23.21
2018-09-01T07:15:05.545Z,23.37
2018-09-01T07:17:42.711Z,23.43
2018-09-01T07:20:15.439Z,23.53
2018-09-01T07:22:48.662Z,23.73
2018-09-01T07:25:21.219Z,23.87
2018-09-01T07:27:54.509Z,24.10
2018-09-01T07:30:25.437Z,24.20
2018-09-01T07:32:55.109Z,24.09
2018-09-01T07:35:24.781Z,24.15
2018-09-01T07:37:55.584Z,24.20
2018-09-01T07:40:34.035Z,24.37
2018-09-01T07:43:03.373Z,24.52
2018-09-01T07:45:36.047Z,24.73
2018-09-01T07:48:11.473Z,24.82
2018-09-01T07:50:50.110Z,24.86
2018-09-01T07:53:22.596Z,24.52
2018-09-01T07:55:53.398Z,24.83
2018-09-01T07:58:29.963Z,24.69
2018-09-01T08:01:00.259Z,24.88
2018-09-01T08:03:30.040Z,24.90
2018-09-01T08:06:00.367Z,24.74
2018-09-01T08:08:33.185Z,24.96
2018-09-01T08:11:04.302Z,25.17
2018-09-01T08:13:34.360Z,24.95
2018-09-01T08:16:05.429Z,25.03
2018-09-01T08:18:36.199Z,24.93
2018-09-01T08:21:07.376Z,25.19
2018-09-01T08:23:36.598Z,25.26
2018-09-01T08:26:06.376Z,25.22
2018-09-01T08:28:38.154Z,25.43
2018-09-01T08:31:08.655Z,25.49
2018-09-01T08:33:42.080Z,25.30
2018-09-01T08:36:22.555Z,25.33
2018-09-01T08:39:05.358Z,25.11
2018-09-01T08:41:56.470Z,25.03
2018-09-01T08:44:27.214Z,25.03
2018-09-01T08:47:04.243Z,25.12
2018-09-01T08:49:34.301Z,25.31
2018-09-01T08:52:07.380Z,25.29
2018-09-01T08:54:38.703Z,25.14
2018-09-01T08:57:10.303Z,25.36
2018-09-01T08:59:39.777Z,25.41
2018-09-01T09:02:16.259Z,25.50
2018-09-01T09:04:47.425Z,25.97
2018-09-01T09:07:16.651Z,25.73
2018-09-01T09:09:50.120Z,25.47
2018-09-01T09:12:21.022Z,25.12
2018-09-01T09:14:50.281Z,25.21
2018-09-01T09:17:21.349Z,25.16
2018-09-01T09:19:55.249Z,25.30
2018-09-01T09:22:24.711Z,25.74
2018-09-01T09:24:54.064Z,25.90
2018-09-01T09:27:23.329Z,25.69
2018-09-01T09:32:29.692Z,26.06
2018-09-01T09:35:01.078Z,26.05
2018-09-01T09:37:38.339Z,26.04
2018-09-01T09:40:11.210Z,25.95
2018-09-01T09:42:46.087Z,26.11
2018-09-01T09:45:20.369Z,26.28
2018-09-01T09:47:51.695Z,26.28
2018-09-01T09:50:25.939Z,26.50
2018-09-01T09:52:56.636Z,26.57
2018-09-01T09:55:26.920Z,26.07
2018-09-01T09:57:56.654Z,26.28
2018-09-01T10:00:35.412Z,26.18
2018-09-01T10:03:06.314Z,26.15
2018-09-01T10:05:37.141Z,26.01
2018-09-01T10:08:07.000Z,25.52
2018-09-01T10:10:36.371Z,26.09
2018-09-01T10:13:08.365Z,26.59
2018-09-01T10:15:40.016Z,26.77
2018-09-01T10:18:10.558Z,26.83
2018-09-01T10:20:39.991Z,27.20
2018-09-01T10:23:10.429Z,27.51
2018-09-01T10:25:40.212Z,27.81
2018-09-01T10:28:11.307Z,28.25
2018-09-01T10:30:42.125Z,28.06
2018-09-01T10:33:13.248Z,27.23
2018-09-01T10:35:42.876Z,27.80
2018-09-01T10:38:13.387Z,28.02
2018-09-01T10:40:49.188Z,27.99
2018-09-01T10:43:19.359Z,27.18
2018-09-01T10:45:51.766Z,26.74
2018-09-01T10:48:21.213Z,26.92
2018-09-01T10:50:52.195Z,26.49
2018-09-01T10:53:22.593Z,26.83
2018-09-01T10:55:52.651Z,26.06
2018-09-01T10:58:21.964Z,25.19
2018-09-01T11:00:55.910Z,24.89
2018-09-01T11:03:27.518Z,24.55
2018-09-01T11:05:58.060Z,24.32
2018-09-01T11:08:31.970Z,24.43
2018-09-01T11:11:03.289Z,24.16
2018-09-01T11:13:37.190Z,24.56
2018-09-01T11:18:49.261Z,26.08
2018-09-01T11:21:19.920Z,26.59
2018-09-01T11:23:56.613Z,26.53
2018-09-01T11:26:34.350Z,27.15
2018-09-01T11:29:05.258Z,27.95
2018-09-01T11:31:39.710Z,28.25
2018-09-01T11:34:53.936Z,28.15
2018-09-01T11:40:14.366Z,26.90
2018-09-01T11:42:55.423Z,26.81
2018-09-01T11:45:39.552Z,26.80
2018-09-01T11:48:09.770Z,26.20
2018-09-01T11:51:03.206Z,26.19
2018-09-01T11:53:41.591Z,25.84
2018-09-01T11:56:23.952Z,25.24
2018-09-01T11:58:54.300Z,24.89
2018-09-01T12:01:26.515Z,25.00
2018-09-01T12:03:59.082Z,25.51
2018-09-01T12:06:30.287Z,25.95
2018-09-01T12:09:00.270Z,26.35
2018-09-01T12:11:32.310Z,25.96
2018-09-01T12:14:03.901Z,25.56
2018-09-01T12:16:37.098Z,25.55
2018-09-01T12:19:06.514Z,25.19
2018-09-01T12:21:38.403Z,25.08
2018-09-01T12:24:12.523Z,25.49
2018-09-01T12:29:53.313Z,26.72
2018-09-01T12:32:28.206Z,27.04
2018-09-01T12:35:02.941Z,27.24
2018-09-01T12:37:32.865Z,27.27
2018-09-01T12:40:02.387Z,27.05
2018-09-01T12:42:32.569Z,27.00
2018-09-01T12:45:16.240Z,27.23
2018-09-01T12:47:49.371Z,26.96
2018-09-01T12:50:20.727Z,27.16
2018-09-01T12:55:34.507Z,28.53
2018-09-01T12:58:55.191Z,28.95
2018-09-01T13:01:34.419Z,28.97
2018-09-01T13:04:06.473Z,29.04
2018-09-01T13:06:51.648Z,28.50
2018-09-01T13:09:27.386Z,27.72
2018-09-01T13:12:25.965Z,27.04
2018-09-01T13:14:57.313Z,26.91
2018-09-01T13:17:37.637Z,26.86
2018-09-01T13:20:09.442Z,26.68
2018-09-01T13:25:43.409Z,27.47
2018-09-01T13:28:19.120Z,28.10
2018-09-01T13:30:49.807Z,27.87
2018-09-01T13:33:23.943Z,27.74
2018-09-01T13:35:58.125Z,27.82
2018-09-01T13:38:36.091Z,27.90
2018-09-01T13:41:13.676Z,28.23
2018-09-01T13:43:55.764Z,28.34
2018-09-01T13:46:32.945Z,28.63
2018-09-01T13:49:06.170Z,28.61
2018-09-01T13:51:43.364Z,29.12
2018-09-01T13:54:14.296Z,28.47
2018-09-01T13:56:44.380Z,28.03
2018-09-01T13:59:15.606Z,27.44
2018-09-01T14:01:52.509Z,26.63
2018-09-01T14:04:35.331Z,26.22
2018-09-01T14:07:06.633Z,25.78
2018-09-01T14:09:38.843Z,25.94
2018-09-01T14:12:12.518Z,26.20
2018-09-01T14:14:43.216Z,26.72
2018-09-01T14:17:14.002Z,27.15
2018-09-01T14:19:51.273Z,26.95
2018-09-01T14:22:40.223Z,26.75
2018-09-01T14:25:13.067Z,25.93
2018-09-01T14:30:39.933Z,25.26
2018-09-01T14:33:17.583Z,25.37
2018-09-01T14:35:54.515Z,25.69
2018-09-01T14:38:24.202Z,26.01
2018-09-01T14:41:01.372Z,26.21
2018-09-01T14:43:36.164Z,26.63
2018-09-01T14:46:08.779Z,26.56
2018-09-01T14:48:39.362Z,26.28
2018-09-01T14:51:09.563Z,25.88
2018-09-01T14:53:44.181Z,25.35
2018-09-01T14:56:13.655Z,25.11
2018-09-01T14:58:45.232Z,24.94
2018-09-01T15:01:22.413Z,24.81
2018-09-01T15:03:52.051Z,24.96
2018-09-01T15:06:24.380Z,25.05
2018-09-01T15:08:54.133Z,25.21
2018-09-01T15:11:31.229Z,25.22
2018-09-01T15:14:13.091Z,25.23
2018-09-01T15:16:51.471Z,25.43
2018-09-01T15:19:28.878Z,25.57
2018-09-01T15:21:58.599Z,25.42
2018-09-01T15:24:28.547Z,25.06
2018-09-01T15:26:59.315Z,24.72
2018-09-01T15:29:30.645Z,24.43
2018-09-01T15:32:01.977Z,24.19
2018-09-01T15:34:31.962Z,23.92
2018-09-01T15:37:23.133Z,23.79
2018-09-01T15:40:00.730Z,23.95
2018-09-01T15:42:35.620Z,23.97
2018-09-01T15:45:09.753Z,24.13
2018-09-01T15:47:40.788Z,24.21
2018-09-01T15:50:24.107Z,24.06
2018-09-01T15:52:56.229Z,24.02
2018-09-01T15:55:28.120Z,24.13
2018-09-01T15:57:58.143Z,24.27
2018-09-01T16:00:29.598Z,24.19
2018-09-01T16:02:59.596Z,24.09
2018-09-01T16:05:29.124Z,24.05
2018-09-01T16:08:01.375Z,23.74
2018-09-01T16:10:33.169Z,23.46
2018-09-01T16:13:03.640Z,23.32
2018-09-01T16:15:34.600Z,23.20
2018-09-01T16:18:04.656Z,23.14
2018-09-01T16:20:35.494Z,23.16
2018-09-01T16:23:07.654Z,23.26
2018-09-01T16:25:39.157Z,23.30
2018-09-01T16:28:09.830Z,23.55
2018-09-01T16:30:41.341Z,23.60
2018-09-01T16:33:10.899Z,23.56
2018-09-01T16:35:43.526Z,23.41
2018-09-01T16:38:15.567Z,23.44
2018-09-01T16:40:46.495Z,23.57
2018-09-01T16:43:19.427Z,23.75
2018-09-01T16:45:51.165Z,23.49
2018-09-01T16:51:11.035Z,23.31
2018-09-01T16:56:27.064Z,23.20
2018-09-01T16:58:58.147Z,23.18
2018-09-01T17:01:29.982Z,23.19
2018-09-01T17:04:01.941Z,23.01
2018-09-01T17:06:33.635Z,23.01
2018-09-01T17:09:03.699Z,23.07
2018-09-01T17:11:36.149Z,23.18
2018-09-01T17:14:08.620Z,23.19
2018-09-01T17:16:39.662Z,23.17
2018-09-01T17:19:17.309Z,23.14
2018-09-01T17:21:51.530Z,23.13
2018-09-01T17:24:21.704Z,23.16
2018-09-01T17:27:01.492Z,23.01
2018-09-01T17:29:36.392Z,23.00
2018-09-01T17:32:10.815Z,22.99
2018-09-01T17:34:43.670Z,22.98
2018-09-01T17:37:25.055Z,22.85
2018-09-01T17:39:59.553Z,22.78
2018-09-01T17:42:30.064Z,22.76
2018-09-01T17:45:06.255Z,22.68
2018-09-01T17:47:43.924Z,22.59
2018-09-01T17:50:14.701Z,22.46
2018-09-01T17:52:45.758Z,22.49
2018-09-01T17:55:28.239Z,22.53
2018-09-01T17:57:59.793Z,22.44
2018-09-01T18:00:31.588Z,22.38
2018-09-01T18:03:06.431Z,22.31
2018-09-01T18:05:38.474Z,22.33
2018-09-01T18:08:09.091Z,22.29
2018-09-01T18:10:39.832Z,21.90
2018-09-01T18:13:16.365Z,22.08
2018-09-01T18:15:48.102Z,22.12
2018-09-01T18:18:20.939Z,22.10
2018-09-01T18:20:52.220Z,22.05
2018-09-01T18:23:25.053Z,21.96
2018-09-01T18:25:58.650Z,21.86
2018-09-01T18:28:29.215Z,21.99
2018-09-01T18:31:00.349Z,22.02
2018-09-01T18:33:31.668Z,21.94
2018-09-01T18:36:03.650Z,21.88
2018-09-01T18:38:35.380Z,21.83
2018-09-01T18:41:20.427Z,21.84
2018-09-01T18:43:52.546Z,21.74
2018-09-01T18:46:25.724Z,21.74
2018-09-01T18:48:57.191Z,21.77
2018-09-01T18:51:28.039Z,21.73
2018-09-01T18:53:59.744Z,21.85
2018-09-01T18:56:36.986Z,21.84
2018-09-01T18:59:10.129Z,21.82
2018-09-01T19:01:42.262Z,21.62
2018-09-01T19:04:16.812Z,21.50
2018-09-01T19:06:50.807Z,21.57
2018-09-01T19:09:26.457Z,21.59
2018-09-01T19:11:57.181Z,21.61
2018-09-01T19:14:33.771Z,21.61
2018-09-01T19:17:05.250Z,21.64
2018-09-01T19:19:52.785Z,21.65
2018-09-01T19:22:33.790Z,21.66
2018-09-01T19:25:45.812Z,21.66
2018-09-01T19:28:23.795Z,21.54
2018-09-01T19:47:20.664Z,21.13
2018-09-01T19:49:55.519Z,21.05
2018-09-01T19:52:29.242Z,20.99
2018-09-01T19:55:02.452Z,20.98
2018-09-01T19:57:53.003Z,20.90
2018-09-01T20:00:34.339Z,20.90
2018-09-01T20:03:07.752Z,20.94
2018-09-01T20:05:43.282Z,20.97
2018-09-01T20:08:20.132Z,21.02
2018-09-01T20:10:52.555Z,20.92
2018-09-01T20:13:34.278Z,20.71
2018-09-01T20:16:08.958Z,20.73
2018-09-01T20:18:47.684Z,20.78
2018-09-01T20:21:28.097Z,20.82
2018-09-01T20:24:06.789Z,20.76
2018-09-01T20:29:41.786Z,20.73
2018-09-01T20:32:18.812Z,20.77
2018-09-01T20:34:52.277Z,20.79
2018-09-01T20:37:39.018Z,20.80
2018-09-01T20:40:16.331Z,20.76
2018-09-01T20:45:28.251Z,20.66
2018-09-01T20:48:02.490Z,20.64
2018-09-01T20:50:48.491Z,20.60
2018-09-01T20:53:23.288Z,20.42
2018-09-01T20:55:55.326Z,20.45
2018-09-01T20:58:28.307Z,20.43
2018-09-01T21:01:01.047Z,20.41
2018-09-01T21:03:36.470Z,20.40
2018-09-01T21:06:15.558Z,20.36
2018-09-01T21:08:47.540Z,20.23
2018-09-01T21:11:22.597Z,20.17
2018-09-01T21:13:57.748Z,20.20
2018-09-01T21:16:30.035Z,20.12
2018-09-01T21:19:02.960Z,20.05
2018-09-01T21:21:41.543Z,20.02
2018-09-01T21:24:12.976Z,20.03
2018-09-01T21:26:44.404Z,20.07
2018-09-01T21:29:19.033Z,19.96
2018-09-01T21:31:51.385Z,19.95
2018-09-01T21:34:24.995Z,19.88
2018-09-01T21:36:58.510Z,19.88
2018-09-01T21:39:31.399Z,19.84
2018-09-01T21:42:02.935Z,19.83
2018-09-01T21:44:34.764Z,19.86
2018-09-01T21:47:07.656Z,19.79
2018-09-01T21:49:38.881Z,19.75
2018-09-01T21:52:11.301Z,19.67
2018-09-01T21:54:44.109Z,19.63
2018-09-01T21:57:15.190Z,19.64
2018-09-01T22:02:35.246Z,19.52
2018-09-01T22:05:20.514Z,19.41
2018-09-01T22:07:53.389Z,19.44
2018-09-01T22:10:24.040Z,19.49
2018-09-01T22:12:53.864Z,19.51
2018-09-01T22:15:27.782Z,19.56
2018-09-01T22:18:00.355Z,19.42
2018-09-01T22:20:32.670Z,19.26
2018-09-01T22:23:05.367Z,19.24
2018-09-01T22:25:35.789Z,19.16
2018-09-01T22:28:11.789Z,19.20
2018-09-01T22:30:41.872Z,19.22
2018-09-01T22:33:15.175Z,19.16
2018-09-01T22:35:48.712Z,19.25
2018-09-01T22:38:28.291Z,19.29
2018-09-01T22:43:46.312Z,19.26
2018-09-01T22:46:20.948Z,19.20
2018-09-01T22:48:54.543Z,19.20
2018-09-01T22:51:27.271Z,19.13
2018-09-01T22:53:58.827Z,19.14
2018-09-01T22:56:31.952Z,19.00
2018-09-01T22:59:02.702Z,18.96
2018-09-01T23:01:36.201Z,18.81
2018-09-01T23:07:13.980Z,18.81
2018-09-01T23:09:44.784Z,18.82
2018-09-01T23:12:18.976Z,18.42
2018-09-01T23:14:53.760Z,18.68
2018-09-01T23:17:26.654Z,18.82
2018-09-01T23:20:08.179Z,18.76
2018-09-01T23:22:43.174Z,18.73
2018-09-01T23:25:21.872Z,18.75
2018-09-01T23:27:56.205Z,18.76
2018-09-01T23:30:31.223Z,18.76
2018-09-01T23:33:03.239Z,18.75
2018-09-01T23:35:32.491Z,18.78
2018-09-01T23:38:16.268Z,18.76
2018-09-01T23:40:58.019Z,18.79
2018-09-01T23:43:34.723Z,18.79
2018-09-01T23:46:06.750Z,18.76
2018-09-01T23:51:14.611Z,18.69
2018-09-01T23:53:44.134Z,18.82
2018-09-01T23:56:13.677Z,18.82
